sim
Sign-in with your pilot id or email,
or register
Callsign
Passwort

Schedule Details

Flight Number: OEO4978
Departure: Berlin Tegel Airport (EDDT) at 12:25
Arrival: Thessaloniki International Airport (LGTS) at 14:55

Weather Information
Getting current METAR information for EDDT 211820Z 34003KT 320V020 CAVOK 20/07 Q1028 NOSIG
Getting current METAR information for LGTS 211820Z 10005KT CAVOK 27/13 Q1016 NOSIG

Schedule Frequency

Route Map